CheckWX is a tool to help pilots better visualize weather data.  It is not intended as a substitute for an official pre-flight weather briefing.

21:40:51 UTC

KVNY TAF
Van Nuys Airport
Van Nuys, California, USA
KVNY 232339Z 2400/2424 15008KT P6SM SKC FM240300 VRB03KT P6SM SKC FM241400 12005KT P6SM SKC FM242000 15008KT P6SM SKC

May-24@
00:00 UTC

May-24 @ 00:00 UTC

May-24@
03:00 UTC

May-24 @ 03:00 UTC

TAF KVNY 232339Z 2400/2424 15008KT P6SM SKC

Expired

Wind
  • 150° at 8 KTS
Cloud Levels
  • Clear skies

May-24@
03:00 UTC

May-24 @ 03:00 UTC

May-24@
14:00 UTC

May-24 @ 14:00 UTC

FM240300 VRB03KT P6SM SKC

Expired

Wind
  • Variable at 3 KTS
Cloud Levels
  • Clear skies

May-24@
14:00 UTC

May-24 @ 14:00 UTC

May-24@
20:00 UTC

May-24 @ 20:00 UTC

FM241400 12005KT P6SM SKC

Expired

Wind
  • 120° at 5 KTS
Cloud Levels
  • Clear skies

May-24@
20:00 UTC

May-24 @ 20:00 UTC

May-25@
00:00 UTC

May-25 @ 00:00 UTC

FM242000 15008KT P6SM SKC

From

From Standard forecast or significant change

Wind
  • 150° at 8 KTS
Cloud Levels
  • Clear skies